sensor_id;sensor_type;location;lat;lon;timestamp;P1;durP1;ratioP1;P2;durP2;ratioP2
14584;SDS011;7379;51.506;11.876;2022-11-27T00:01:22;10.30;;;7.67;;
14584;SDS011;7379;51.506;11.876;2022-11-27T00:03:52;12.47;;;8.53;;
14584;SDS011;7379;51.506;11.876;2022-11-27T00:06:25;14.00;;;7.97;;
14584;SDS011;7379;51.506;11.876;2022-11-27T00:08:56;10.00;;;7.17;;
14584;SDS011;7379;51.506;11.876;2022-11-27T00:11:27;11.93;;;8.23;;
14584;SDS011;7379;51.506;11.876;2022-11-27T00:13:58;11.70;;;8.50;;
14584;SDS011;7379;51.506;11.876;2022-11-27T00:16:29;14.17;;;8.63;;
14584;SDS011;7379;51.506;11.876;2022-11-27T00:18:59;11.37;;;8.10;;
14584;SDS011;7379;51.506;11.876;2022-11-27T00:21:31;10.83;;;7.80;;
14584;SDS011;7379;51.506;11.876;2022-11-27T00:24:03;9.90;;;7.83;;
14584;SDS011;7379;51.506;11.876;2022-11-27T00:26:30;11.07;;;7.53;;
14584;SDS011;7379;51.506;11.876;2022-11-27T00:28:57;10.73;;;7.73;;
14584;SDS011;7379;51.506;11.876;2022-11-27T00:31:25;9.97;;;7.47;;
14584;SDS011;7379;51.506;11.876;2022-11-27T00:33:53;11.87;;;7.87;;
14584;SDS011;7379;51.506;11.876;2022-11-27T00:36:20;10.87;;;7.33;;
14584;SDS011;7379;51.506;11.876;2022-11-27T00:38:48;12.90;;;8.17;;
14584;SDS011;7379;51.506;11.876;2022-11-27T00:41:16;11.50;;;7.90;;
14584;SDS011;7379;51.506;11.876;2022-11-27T00:43:44;10.87;;;8.13;;
14584;SDS011;7379;51.506;11.876;2022-11-27T00:46:11;12.00;;;8.27;;
14584;SDS011;7379;51.506;11.876;2022-11-27T00:48:38;11.00;;;7.27;;
14584;SDS011;7379;51.506;11.876;2022-11-27T00:51:06;11.23;;;7.83;;
14584;SDS011;7379;51.506;11.876;2022-11-27T00:53:34;11.97;;;8.37;;
14584;SDS011;7379;51.506;11.876;2022-11-27T00:56:02;9.93;;;7.80;;
14584;SDS011;7379;51.506;11.876;2022-11-27T00:58:30;11.07;;;7.57;;
14584;SDS011;7379;51.506;11.876;2022-11-27T01:00:58;13.13;;;8.13;;
14584;SDS011;7379;51.506;11.876;2022-11-27T01:03:26;10.30;;;7.33;;
14584;SDS011;7379;51.506;11.876;2022-11-27T01:05:53;11.93;;;8.70;;
14584;SDS011;7379;51.506;11.876;2022-11-27T01:08:20;12.30;;;8.00;;
14584;SDS011;7379;51.506;11.876;2022-11-27T01:10:48;12.33;;;8.67;;
14584;SDS011;7379;51.506;11.876;2022-11-27T01:13:17;13.70;;;8.13;;
14584;SDS011;7379;51.506;11.876;2022-11-27T01:15:44;15.90;;;8.43;;
14584;SDS011;7379;51.506;11.876;2022-11-27T01:18:11;12.20;;;8.60;;
14584;SDS011;7379;51.506;11.876;2022-11-27T01:20:38;12.43;;;8.83;;
14584;SDS011;7379;51.506;11.876;2022-11-27T01:23:06;14.97;;;9.13;;
14584;SDS011;7379;51.506;11.876;2022-11-27T01:25:33;15.40;;;8.57;;
14584;SDS011;7379;51.506;11.876;2022-11-27T01:28:00;11.67;;;8.30;;
14584;SDS011;7379;51.506;11.876;2022-11-27T01:30:29;12.93;;;8.37;;
14584;SDS011;7379;51.506;11.876;2022-11-27T01:32:56;14.90;;;8.30;;
14584;SDS011;7379;51.506;11.876;2022-11-27T01:35:23;12.07;;;8.63;;
14584;SDS011;7379;51.506;11.876;2022-11-27T01:37:50;12.57;;;8.63;;
14584;SDS011;7379;51.506;11.876;2022-11-27T01:40:17;11.90;;;8.17;;
14584;SDS011;7379;51.506;11.876;2022-11-27T01:42:44;11.30;;;8.67;;
14584;SDS011;7379;51.506;11.876;2022-11-27T01:45:11;12.47;;;8.00;;
14584;SDS011;7379;51.506;11.876;2022-11-27T01:47:44;12.20;;;8.50;;
14584;SDS011;7379;51.506;11.876;2022-11-27T01:50:13;9.87;;;7.93;;
14584;SDS011;7379;51.506;11.876;2022-11-27T01:52:43;11.37;;;7.73;;
14584;SDS011;7379;51.506;11.876;2022-11-27T01:55:13;10.53;;;7.90;;
14584;SDS011;7379;51.506;11.876;2022-11-27T01:57:45;12.77;;;8.40;;
14584;SDS011;7379;51.506;11.876;2022-11-27T02:00:13;10.10;;;7.47;;
14584;SDS011;7379;51.506;11.876;2022-11-27T02:02:41;11.43;;;7.97;;
14584;SDS011;7379;51.506;11.876;2022-11-27T02:05:11;12.70;;;8.00;;
14584;SDS011;7379;51.506;11.876;2022-11-27T02:07:38;13.00;;;7.93;;
14584;SDS011;7379;51.506;11.876;2022-11-27T02:10:07;9.97;;;7.17;;
14584;SDS011;7379;51.506;11.876;2022-11-27T02:12:35;12.60;;;7.63;;
14584;SDS011;7379;51.506;11.876;2022-11-27T02:15:07;10.53;;;7.40;;
14584;SDS011;7379;51.506;11.876;2022-11-27T02:17:36;12.43;;;8.33;;
14584;SDS011;7379;51.506;11.876;2022-11-27T02:20:21;12.53;;;7.60;;
14584;SDS011;7379;51.506;11.876;2022-11-27T02:22:56;13.50;;;7.00;;
14584;SDS011;7379;51.506;11.876;2022-11-27T02:25:27;10.07;;;7.13;;
14584;SDS011;7379;51.506;11.876;2022-11-27T02:28:01;10.83;;;7.37;;
14584;SDS011;7379;51.506;11.876;2022-11-27T02:30:33;9.17;;;7.10;;
14584;SDS011;7379;51.506;11.876;2022-11-27T02:33:01;9.93;;;6.77;;
14584;SDS011;7379;51.506;11.876;2022-11-27T02:35:32;8.67;;;6.63;;
14584;SDS011;7379;51.506;11.876;2022-11-27T02:38:03;9.37;;;7.13;;
14584;SDS011;7379;51.506;11.876;2022-11-27T02:40:33;9.67;;;6.70;;
14584;SDS011;7379;51.506;11.876;2022-11-27T02:43:04;9.23;;;7.07;;
14584;SDS011;7379;51.506;11.876;2022-11-27T02:45:34;9.00;;;6.70;;
14584;SDS011;7379;51.506;11.876;2022-11-27T02:48:02;8.53;;;6.30;;
14584;SDS011;7379;51.506;11.876;2022-11-27T02:50:30;9.83;;;6.77;;
14584;SDS011;7379;51.506;11.876;2022-11-27T02:52:58;10.90;;;6.67;;
14584;SDS011;7379;51.506;11.876;2022-11-27T02:55:28;10.30;;;6.50;;
14584;SDS011;7379;51.506;11.876;2022-11-27T02:57:56;9.60;;;6.40;;
14584;SDS011;7379;51.506;11.876;2022-11-27T03:00:24;10.93;;;6.93;;
14584;SDS011;7379;51.506;11.876;2022-11-27T03:02:53;10.80;;;6.97;;
14584;SDS011;7379;51.506;11.876;2022-11-27T03:05:22;9.10;;;6.67;;
14584;SDS011;7379;51.506;11.876;2022-11-27T03:07:51;9.37;;;6.87;;
14584;SDS011;7379;51.506;11.876;2022-11-27T03:10:21;8.93;;;6.27;;
14584;SDS011;7379;51.506;11.876;2022-11-27T03:12:50;10.10;;;6.60;;
14584;SDS011;7379;51.506;11.876;2022-11-27T03:15:17;9.63;;;6.40;;
14584;SDS011;7379;51.506;11.876;2022-11-27T03:17:48;10.80;;;6.70;;
14584;SDS011;7379;51.506;11.876;2022-11-27T03:20:19;10.67;;;6.77;;
14584;SDS011;7379;51.506;11.876;2022-11-27T03:22:47;9.97;;;6.67;;
14584;SDS011;7379;51.506;11.876;2022-11-27T03:25:14;7.50;;;6.40;;
14584;SDS011;7379;51.506;11.876;2022-11-27T03:27:42;10.03;;;6.30;;
14584;SDS011;7379;51.506;11.876;2022-11-27T03:30:10;9.90;;;6.97;;
14584;SDS011;7379;51.506;11.876;2022-11-27T03:32:38;9.40;;;6.50;;
14584;SDS011;7379;51.506;11.876;2022-11-27T03:35:06;7.93;;;6.07;;
14584;SDS011;7379;51.506;11.876;2022-11-27T03:37:35;7.63;;;6.00;;
14584;SDS011;7379;51.506;11.876;2022-11-27T03:40:03;8.20;;;6.40;;
14584;SDS011;7379;51.506;11.876;2022-11-27T03:42:32;9.13;;;6.70;;
14584;SDS011;7379;51.506;11.876;2022-11-27T03:45:05;10.33;;;6.67;;
14584;SDS011;7379;51.506;11.876;2022-11-27T03:47:40;9.27;;;6.57;;
14584;SDS011;7379;51.506;11.876;2022-11-27T03:50:15;8.20;;;6.10;;
14584;SDS011;7379;51.506;11.876;2022-11-27T03:52:46;9.37;;;6.40;;
14584;SDS011;7379;51.506;11.876;2022-11-27T03:55:16;10.27;;;6.63;;
14584;SDS011;7379;51.506;11.876;2022-11-27T03:57:48;9.53;;;6.17;;
14584;SDS011;7379;51.506;11.876;2022-11-27T04:00:19;9.30;;;6.30;;
14584;SDS011;7379;51.506;11.876;2022-11-27T04:02:47;9.90;;;6.60;;
14584;SDS011;7379;51.506;11.876;2022-11-27T04:05:15;10.33;;;6.47;;
14584;SDS011;7379;51.506;11.876;2022-11-27T04:07:44;8.77;;;6.47;;
14584;SDS011;7379;51.506;11.876;2022-11-27T04:10:11;9.27;;;6.83;;
14584;SDS011;7379;51.506;11.876;2022-11-27T04:12:40;9.97;;;6.73;;
14584;SDS011;7379;51.506;11.876;2022-11-27T04:15:08;9.40;;;6.23;;
14584;SDS011;7379;51.506;11.876;2022-11-27T04:17:35;7.80;;;6.63;;
14584;SDS011;7379;51.506;11.876;2022-11-27T04:20:02;9.00;;;6.73;;
14584;SDS011;7379;51.506;11.876;2022-11-27T04:22:29;9.07;;;6.67;;
14584;SDS011;7379;51.506;11.876;2022-11-27T04:24:58;7.53;;;6.07;;
14584;SDS011;7379;51.506;11.876;2022-11-27T04:27:25;10.37;;;6.43;;
14584;SDS011;7379;51.506;11.876;2022-11-27T04:29:52;10.60;;;6.50;;
14584;SDS011;7379;51.506;11.876;2022-11-27T04:32:19;9.73;;;6.67;;
14584;SDS011;7379;51.506;11.876;2022-11-27T04:34:46;9.27;;;6.27;;
14584;SDS011;7379;51.506;11.876;2022-11-27T04:37:14;9.70;;;6.53;;
14584;SDS011;7379;51.506;11.876;2022-11-27T04:39:41;8.57;;;6.27;;
14584;SDS011;7379;51.506;11.876;2022-11-27T04:42:09;8.87;;;6.27;;
14584;SDS011;7379;51.506;11.876;2022-11-27T04:44:36;9.07;;;6.60;;
14584;SDS011;7379;51.506;11.876;2022-11-27T04:47:03;7.77;;;6.10;;
14584;SDS011;7379;51.506;11.876;2022-11-27T04:49:31;7.73;;;6.37;;
14584;SDS011;7379;51.506;11.876;2022-11-27T04:51:58;7.97;;;6.30;;
14584;SDS011;7379;51.506;11.876;2022-11-27T04:54:25;8.23;;;6.30;;
14584;SDS011;7379;51.506;11.876;2022-11-27T04:56:52;10.00;;;6.80;;
14584;SDS011;7379;51.506;11.876;2022-11-27T04:59:20;10.90;;;6.50;;
14584;SDS011;7379;51.506;11.876;2022-11-27T05:01:48;8.20;;;6.50;;
14584;SDS011;7379;51.506;11.876;2022-11-27T05:04:15;9.60;;;6.23;;
14584;SDS011;7379;51.506;11.876;2022-11-27T05:06:42;7.57;;;6.00;;
14584;SDS011;7379;51.506;11.876;2022-11-27T05:09:09;11.27;;;6.67;;
14584;SDS011;7379;51.506;11.876;2022-11-27T05:11:36;8.30;;;6.27;;
14584;SDS011;7379;51.506;11.876;2022-11-27T05:14:03;7.93;;;5.97;;
14584;SDS011;7379;51.506;11.876;2022-11-27T05:16:46;6.80;;;5.87;;
14584;SDS011;7379;51.506;11.876;2022-11-27T05:19:14;9.07;;;6.50;;
14584;SDS011;7379;51.506;11.876;2022-11-27T05:21:42;9.53;;;6.33;;
14584;SDS011;7379;51.506;11.876;2022-11-27T05:24:10;9.30;;;6.43;;
14584;SDS011;7379;51.506;11.876;2022-11-27T05:26:37;9.40;;;6.30;;
14584;SDS011;7379;51.506;11.876;2022-11-27T05:29:05;7.70;;;5.80;;
14584;SDS011;7379;51.506;11.876;2022-11-27T05:31:32;8.60;;;6.20;;
14584;SDS011;7379;51.506;11.876;2022-11-27T05:34:01;9.43;;;6.73;;
14584;SDS011;7379;51.506;11.876;2022-11-27T05:36:29;10.50;;;6.57;;
14584;SDS011;7379;51.506;11.876;2022-11-27T05:38:57;7.47;;;6.30;;
14584;SDS011;7379;51.506;11.876;2022-11-27T05:41:24;8.53;;;6.37;;
14584;SDS011;7379;51.506;11.876;2022-11-27T05:43:51;9.63;;;6.70;;
14584;SDS011;7379;51.506;11.876;2022-11-27T05:46:19;8.37;;;6.60;;
14584;SDS011;7379;51.506;11.876;2022-11-27T05:48:46;8.73;;;6.23;;
14584;SDS011;7379;51.506;11.876;2022-11-27T05:51:15;8.70;;;6.40;;
14584;SDS011;7379;51.506;11.876;2022-11-27T05:53:42;10.20;;;6.77;;
14584;SDS011;7379;51.506;11.876;2022-11-27T05:56:10;8.80;;;7.13;;
14584;SDS011;7379;51.506;11.876;2022-11-27T05:58:40;8.17;;;6.30;;
14584;SDS011;7379;51.506;11.876;2022-11-27T06:01:08;8.87;;;6.40;;
14584;SDS011;7379;51.506;11.876;2022-11-27T06:03:37;8.70;;;6.97;;
14584;SDS011;7379;51.506;11.876;2022-11-27T06:06:04;9.83;;;6.80;;
14584;SDS011;7379;51.506;11.876;2022-11-27T06:08:34;9.23;;;6.63;;
14584;SDS011;7379;51.506;11.876;2022-11-27T06:11:04;10.23;;;7.17;;
14584;SDS011;7379;51.506;11.876;2022-11-27T06:13:32;9.57;;;6.73;;
14584;SDS011;7379;51.506;11.876;2022-11-27T06:16:02;8.40;;;6.87;;
14584;SDS011;7379;51.506;11.876;2022-11-27T06:18:30;9.37;;;6.90;;
14584;SDS011;7379;51.506;11.876;2022-11-27T06:20:57;10.13;;;7.20;;
14584;SDS011;7379;51.506;11.876;2022-11-27T06:23:24;9.30;;;6.73;;
14584;SDS011;7379;51.506;11.876;2022-11-27T06:25:52;8.20;;;6.67;;
14584;SDS011;7379;51.506;11.876;2022-11-27T06:28:19;9.47;;;6.97;;
14584;SDS011;7379;51.506;11.876;2022-11-27T06:30:45;9.40;;;7.37;;
14584;SDS011;7379;51.506;11.876;2022-11-27T06:33:12;9.50;;;6.70;;
14584;SDS011;7379;51.506;11.876;2022-11-27T06:35:39;9.63;;;7.20;;
14584;SDS011;7379;51.506;11.876;2022-11-27T06:38:06;9.13;;;7.03;;
14584;SDS011;7379;51.506;11.876;2022-11-27T06:40:33;8.77;;;6.80;;
14584;SDS011;7379;51.506;11.876;2022-11-27T06:43:01;8.63;;;7.00;;
14584;SDS011;7379;51.506;11.876;2022-11-27T06:45:27;9.00;;;7.30;;
14584;SDS011;7379;51.506;11.876;2022-11-27T06:47:54;10.17;;;7.13;;
14584;SDS011;7379;51.506;11.876;2022-11-27T06:50:21;10.53;;;7.10;;
14584;SDS011;7379;51.506;11.876;2022-11-27T06:52:48;9.77;;;7.50;;
14584;SDS011;7379;51.506;11.876;2022-11-27T06:55:14;8.93;;;6.53;;
14584;SDS011;7379;51.506;11.876;2022-11-27T06:57:41;11.10;;;7.27;;
14584;SDS011;7379;51.506;11.876;2022-11-27T07:00:10;9.57;;;7.10;;
14584;SDS011;7379;51.506;11.876;2022-11-27T07:02:37;9.23;;;7.57;;
14584;SDS011;7379;51.506;11.876;2022-11-27T07:05:04;8.80;;;7.13;;
14584;SDS011;7379;51.506;11.876;2022-11-27T07:07:31;12.10;;;7.27;;
14584;SDS011;7379;51.506;11.876;2022-11-27T07:09:58;12.40;;;7.50;;
14584;SDS011;7379;51.506;11.876;2022-11-27T07:12:26;9.17;;;7.03;;
14584;SDS011;7379;51.506;11.876;2022-11-27T07:14:53;10.10;;;7.73;;
14584;SDS011;7379;51.506;11.876;2022-11-27T07:17:21;10.47;;;7.70;;
14584;SDS011;7379;51.506;11.876;2022-11-27T07:19:48;9.80;;;7.67;;
14584;SDS011;7379;51.506;11.876;2022-11-27T07:22:15;9.60;;;7.37;;
14584;SDS011;7379;51.506;11.876;2022-11-27T07:24:41;8.73;;;7.37;;
14584;SDS011;7379;51.506;11.876;2022-11-27T07:27:08;10.53;;;7.70;;
14584;SDS011;7379;51.506;11.876;2022-11-27T07:29:35;11.17;;;8.13;;
14584;SDS011;7379;51.506;11.876;2022-11-27T07:32:02;9.67;;;7.73;;
14584;SDS011;7379;51.506;11.876;2022-11-27T07:34:30;9.53;;;7.13;;
14584;SDS011;7379;51.506;11.876;2022-11-27T07:36:57;10.50;;;8.00;;
14584;SDS011;7379;51.506;11.876;2022-11-27T07:39:23;10.17;;;7.80;;
14584;SDS011;7379;51.506;11.876;2022-11-27T07:41:50;11.10;;;8.33;;
14584;SDS011;7379;51.506;11.876;2022-11-27T07:44:17;8.73;;;7.20;;
14584;SDS011;7379;51.506;11.876;2022-11-27T07:46:44;10.27;;;7.30;;
14584;SDS011;7379;51.506;11.876;2022-11-27T07:49:10;9.87;;;7.53;;
14584;SDS011;7379;51.506;11.876;2022-11-27T07:51:38;10.23;;;7.90;;
14584;SDS011;7379;51.506;11.876;2022-11-27T07:54:05;11.10;;;7.50;;
14584;SDS011;7379;51.506;11.876;2022-11-27T07:56:32;10.00;;;7.57;;
14584;SDS011;7379;51.506;11.876;2022-11-27T07:58:59;9.43;;;7.67;;
14584;SDS011;7379;51.506;11.876;2022-11-27T08:01:25;11.00;;;7.70;;
14584;SDS011;7379;51.506;11.876;2022-11-27T08:03:52;9.43;;;7.37;;
14584;SDS011;7379;51.506;11.876;2022-11-27T08:06:20;10.47;;;7.37;;
14584;SDS011;7379;51.506;11.876;2022-11-27T08:08:49;11.60;;;7.60;;
14584;SDS011;7379;51.506;11.876;2022-11-27T08:11:17;10.87;;;7.47;;
14584;SDS011;7379;51.506;11.876;2022-11-27T08:13:45;10.10;;;7.53;;
14584;SDS011;7379;51.506;11.876;2022-11-27T08:16:12;8.67;;;7.10;;
14584;SDS011;7379;51.506;11.876;2022-11-27T08:18:39;8.67;;;7.23;;
14584;SDS011;7379;51.506;11.876;2022-11-27T08:21:06;9.17;;;7.00;;
14584;SDS011;7379;51.506;11.876;2022-11-27T08:23:33;9.67;;;6.97;;
14584;SDS011;7379;51.506;11.876;2022-11-27T08:26:04;10.97;;;7.60;;
14584;SDS011;7379;51.506;11.876;2022-11-27T08:28:32;9.77;;;7.30;;
14584;SDS011;7379;51.506;11.876;2022-11-27T08:30:59;8.33;;;7.03;;
14584;SDS011;7379;51.506;11.876;2022-11-27T08:33:27;8.93;;;6.50;;
14584;SDS011;7379;51.506;11.876;2022-11-27T08:35:54;9.07;;;7.20;;
14584;SDS011;7379;51.506;11.876;2022-11-27T08:38:21;9.17;;;6.77;;
14584;SDS011;7379;51.506;11.876;2022-11-27T08:40:54;9.77;;;7.10;;
14584;SDS011;7379;51.506;11.876;2022-11-27T08:43:23;7.47;;;6.67;;
14584;SDS011;7379;51.506;11.876;2022-11-27T08:45:50;10.63;;;7.50;;
14584;SDS011;7379;51.506;11.876;2022-11-27T08:48:17;9.93;;;7.17;;
14584;SDS011;7379;51.506;11.876;2022-11-27T08:50:45;10.70;;;7.33;;
14584;SDS011;7379;51.506;11.876;2022-11-27T08:53:12;9.00;;;7.23;;
14584;SDS011;7379;51.506;11.876;2022-11-27T08:55:39;9.13;;;7.07;;
14584;SDS011;7379;51.506;11.876;2022-11-27T08:58:06;9.17;;;6.83;;
14584;SDS011;7379;51.506;11.876;2022-11-27T09:00:35;9.23;;;6.93;;
14584;SDS011;7379;51.506;11.876;2022-11-27T09:03:03;8.97;;;7.07;;
14584;SDS011;7379;51.506;11.876;2022-11-27T09:05:31;8.80;;;6.97;;
14584;SDS011;7379;51.506;11.876;2022-11-27T09:07:58;10.70;;;7.30;;
14584;SDS011;7379;51.506;11.876;2022-11-27T09:10:26;9.87;;;6.93;;
14584;SDS011;7379;51.506;11.876;2022-11-27T09:12:53;8.73;;;7.03;;
14584;SDS011;7379;51.506;11.876;2022-11-27T09:15:20;8.50;;;6.90;;
14584;SDS011;7379;51.506;11.876;2022-11-27T09:17:48;9.53;;;6.70;;
14584;SDS011;7379;51.506;11.876;2022-11-27T09:20:15;7.77;;;6.77;;
14584;SDS011;7379;51.506;11.876;2022-11-27T09:22:42;9.77;;;7.47;;
14584;SDS011;7379;51.506;11.876;2022-11-27T09:25:09;9.00;;;7.20;;
14584;SDS011;7379;51.506;11.876;2022-11-27T09:27:36;10.83;;;7.67;;
14584;SDS011;7379;51.506;11.876;2022-11-27T09:30:04;10.10;;;8.00;;
14584;SDS011;7379;51.506;11.876;2022-11-27T09:32:33;12.43;;;8.30;;
14584;SDS011;7379;51.506;11.876;2022-11-27T09:35:01;9.17;;;7.50;;
14584;SDS011;7379;51.506;11.876;2022-11-27T09:37:28;9.73;;;7.93;;
14584;SDS011;7379;51.506;11.876;2022-11-27T09:39:55;8.87;;;7.50;;
14584;SDS011;7379;51.506;11.876;2022-11-27T09:42:28;9.33;;;7.93;;
14584;SDS011;7379;51.506;11.876;2022-11-27T09:45:03;9.03;;;7.17;;
14584;SDS011;7379;51.506;11.876;2022-11-27T09:47:35;11.30;;;8.20;;
14584;SDS011;7379;51.506;11.876;2022-11-27T09:50:10;10.40;;;7.30;;
14584;SDS011;7379;51.506;11.876;2022-11-27T09:52:40;9.67;;;7.87;;
14584;SDS011;7379;51.506;11.876;2022-11-27T09:55:11;9.13;;;8.00;;
14584;SDS011;7379;51.506;11.876;2022-11-27T09:57:41;9.53;;;8.00;;
14584;SDS011;7379;51.506;11.876;2022-11-27T10:00:21;9.90;;;7.60;;
14584;SDS011;7379;51.506;11.876;2022-11-27T10:02:48;10.20;;;7.73;;
14584;SDS011;7379;51.506;11.876;2022-11-27T10:05:17;9.57;;;7.50;;
14584;SDS011;7379;51.506;11.876;2022-11-27T10:07:54;9.03;;;7.13;;
14584;SDS011;7379;51.506;11.876;2022-11-27T10:10:39;10.23;;;7.73;;
14584;SDS011;7379;51.506;11.876;2022-11-27T10:13:15;8.83;;;7.93;;
14584;SDS011;7379;51.506;11.876;2022-11-27T10:15:50;11.27;;;8.23;;
14584;SDS011;7379;51.506;11.876;2022-11-27T10:18:24;10.90;;;7.47;;
14584;SDS011;7379;51.506;11.876;2022-11-27T10:20:59;10.40;;;8.07;;
14584;SDS011;7379;51.506;11.876;2022-11-27T10:23:35;8.80;;;7.30;;
14584;SDS011;7379;51.506;11.876;2022-11-27T10:26:10;9.90;;;7.67;;
14584;SDS011;7379;51.506;11.876;2022-11-27T10:28:45;9.90;;;7.80;;
14584;SDS011;7379;51.506;11.876;2022-11-27T10:31:18;8.30;;;7.33;;
14584;SDS011;7379;51.506;11.876;2022-11-27T10:33:53;9.03;;;7.83;;
14584;SDS011;7379;51.506;11.876;2022-11-27T10:36:25;10.27;;;7.60;;
14584;SDS011;7379;51.506;11.876;2022-11-27T10:38:54;10.47;;;8.30;;
14584;SDS011;7379;51.506;11.876;2022-11-27T10:41:23;10.93;;;7.97;;
14584;SDS011;7379;51.506;11.876;2022-11-27T10:43:55;9.30;;;8.17;;
14584;SDS011;7379;51.506;11.876;2022-11-27T10:46:26;9.17;;;7.97;;
14584;SDS011;7379;51.506;11.876;2022-11-27T10:48:54;9.17;;;7.83;;
14584;SDS011;7379;51.506;11.876;2022-11-27T10:51:24;9.87;;;7.57;;
14584;SDS011;7379;51.506;11.876;2022-11-27T10:53:57;9.90;;;7.90;;
14584;SDS011;7379;51.506;11.876;2022-11-27T10:59:18;9.97;;;7.73;;
14584;SDS011;7379;51.506;11.876;2022-11-27T11:01:49;9.53;;;8.20;;
14584;SDS011;7379;51.506;11.876;2022-11-27T11:04:19;10.53;;;8.07;;
14584;SDS011;7379;51.506;11.876;2022-11-27T11:06:48;11.23;;;8.20;;
14584;SDS011;7379;51.506;11.876;2022-11-27T11:09:16;10.77;;;8.50;;
14584;SDS011;7379;51.506;11.876;2022-11-27T11:11:46;8.93;;;7.57;;
14584;SDS011;7379;51.506;11.876;2022-11-27T11:14:14;9.93;;;7.70;;
14584;SDS011;7379;51.506;11.876;2022-11-27T11:16:43;10.23;;;7.70;;
14584;SDS011;7379;51.506;11.876;2022-11-27T11:19:20;9.87;;;7.73;;
14584;SDS011;7379;51.506;11.876;2022-11-27T11:21:49;10.50;;;7.67;;
14584;SDS011;7379;51.506;11.876;2022-11-27T11:24:19;8.70;;;6.87;;
14584;SDS011;7379;51.506;11.876;2022-11-27T11:26:50;9.23;;;7.40;;
14584;SDS011;7379;51.506;11.876;2022-11-27T11:29:23;10.37;;;7.17;;
14584;SDS011;7379;51.506;11.876;2022-11-27T11:31:53;8.23;;;6.97;;
14584;SDS011;7379;51.506;11.876;2022-11-27T11:34:22;9.20;;;7.20;;
14584;SDS011;7379;51.506;11.876;2022-11-27T11:36:54;8.17;;;6.80;;
14584;SDS011;7379;51.506;11.876;2022-11-27T11:39:23;9.23;;;7.27;;
14584;SDS011;7379;51.506;11.876;2022-11-27T11:41:50;7.80;;;6.73;;
14584;SDS011;7379;51.506;11.876;2022-11-27T11:44:19;10.40;;;7.33;;
14584;SDS011;7379;51.506;11.876;2022-11-27T11:46:50;9.67;;;6.70;;
14584;SDS011;7379;51.506;11.876;2022-11-27T11:49:18;8.23;;;6.73;;
14584;SDS011;7379;51.506;11.876;2022-11-27T11:52:06;8.67;;;6.37;;
14584;SDS011;7379;51.506;11.876;2022-11-27T11:54:46;8.20;;;6.67;;
14584;SDS011;7379;51.506;11.876;2022-11-27T11:57:23;8.47;;;6.37;;
14584;SDS011;7379;51.506;11.876;2022-11-27T12:00:00;8.53;;;6.63;;
14584;SDS011;7379;51.506;11.876;2022-11-27T12:02:35;7.40;;;6.27;;
14584;SDS011;7379;51.506;11.876;2022-11-27T12:05:17;9.23;;;6.40;;
14584;SDS011;7379;51.506;11.876;2022-11-27T12:08:01;8.57;;;6.30;;
14584;SDS011;7379;51.506;11.876;2022-11-27T12:10:42;7.83;;;6.20;;
14584;SDS011;7379;51.506;11.876;2022-11-27T12:13:17;8.80;;;6.13;;
14584;SDS011;7379;51.506;11.876;2022-11-27T12:15:59;10.47;;;6.60;;
14584;SDS011;7379;51.506;11.876;2022-11-27T12:18:34;6.47;;;5.80;;
14584;SDS011;7379;51.506;11.876;2022-11-27T12:21:12;7.57;;;5.83;;
14584;SDS011;7379;51.506;11.876;2022-11-27T12:23:50;8.07;;;6.13;;
14584;SDS011;7379;51.506;11.876;2022-11-27T12:26:26;7.77;;;6.60;;
14584;SDS011;7379;51.506;11.876;2022-11-27T12:32:22;9.63;;;5.57;;
14584;SDS011;7379;51.506;11.876;2022-11-27T12:35:19;7.83;;;5.93;;
14584;SDS011;7379;51.506;11.876;2022-11-27T12:38:00;7.37;;;5.93;;
14584;SDS011;7379;51.506;11.876;2022-11-27T12:40:49;7.83;;;5.83;;
14584;SDS011;7379;51.506;11.876;2022-11-27T12:43:26;6.50;;;5.80;;
14584;SDS011;7379;51.506;11.876;2022-11-27T12:45:56;8.37;;;5.67;;
14584;SDS011;7379;51.506;11.876;2022-11-27T12:48:29;6.60;;;5.57;;
14584;SDS011;7379;51.506;11.876;2022-11-27T12:51:00;6.47;;;5.57;;
14584;SDS011;7379;51.506;11.876;2022-11-27T12:53:33;8.13;;;6.53;;
14584;SDS011;7379;51.506;11.876;2022-11-27T12:56:08;6.67;;;5.50;;
14584;SDS011;7379;51.506;11.876;2022-11-27T12:58:40;7.83;;;5.27;;
14584;SDS011;7379;51.506;11.876;2022-11-27T13:01:11;7.70;;;5.77;;
14584;SDS011;7379;51.506;11.876;2022-11-27T13:03:42;8.50;;;5.73;;
14584;SDS011;7379;51.506;11.876;2022-11-27T13:06:18;6.87;;;5.57;;
14584;SDS011;7379;51.506;11.876;2022-11-27T13:08:49;8.03;;;5.53;;
14584;SDS011;7379;51.506;11.876;2022-11-27T13:11:24;9.53;;;5.30;;
14584;SDS011;7379;51.506;11.876;2022-11-27T13:13:56;5.93;;;4.87;;
14584;SDS011;7379;51.506;11.876;2022-11-27T13:16:29;7.30;;;5.23;;
14584;SDS011;7379;51.506;11.876;2022-11-27T13:19:00;5.83;;;5.00;;
14584;SDS011;7379;51.506;11.876;2022-11-27T13:21:35;6.50;;;5.33;;
14584;SDS011;7379;51.506;11.876;2022-11-27T13:24:04;7.60;;;5.07;;
14584;SDS011;7379;51.506;11.876;2022-11-27T13:26:37;6.07;;;5.20;;
14584;SDS011;7379;51.506;11.876;2022-11-27T13:29:14;5.83;;;4.80;;
14584;SDS011;7379;51.506;11.876;2022-11-27T13:31:53;6.93;;;5.43;;
14584;SDS011;7379;51.506;11.876;2022-11-27T13:34:24;7.87;;;5.07;;
14584;SDS011;7379;51.506;11.876;2022-11-27T13:36:54;6.30;;;5.50;;
14584;SDS011;7379;51.506;11.876;2022-11-27T13:39:23;6.13;;;5.30;;
14584;SDS011;7379;51.506;11.876;2022-11-27T13:42:01;10.13;;;5.43;;
14584;SDS011;7379;51.506;11.876;2022-11-27T13:44:31;6.83;;;5.50;;
14584;SDS011;7379;51.506;11.876;2022-11-27T13:47:04;6.77;;;5.20;;
14584;SDS011;7379;51.506;11.876;2022-11-27T13:49:35;7.13;;;5.43;;
14584;SDS011;7379;51.506;11.876;2022-11-27T13:52:03;7.13;;;5.13;;
14584;SDS011;7379;51.506;11.876;2022-11-27T13:54:33;7.13;;;5.43;;
14584;SDS011;7379;51.506;11.876;2022-11-27T13:57:14;6.73;;;5.20;;
14584;SDS011;7379;51.506;11.876;2022-11-27T13:59:53;7.03;;;5.37;;
14584;SDS011;7379;51.506;11.876;2022-11-27T14:02:21;6.10;;;5.40;;
14584;SDS011;7379;51.506;11.876;2022-11-27T14:04:49;10.27;;;5.97;;
14584;SDS011;7379;51.506;11.876;2022-11-27T14:07:16;7.57;;;5.30;;
14584;SDS011;7379;51.506;11.876;2022-11-27T14:09:45;7.43;;;5.40;;
14584;SDS011;7379;51.506;11.876;2022-11-27T14:12:16;7.63;;;5.47;;
14584;SDS011;7379;51.506;11.876;2022-11-27T14:14:56;8.63;;;5.37;;
14584;SDS011;7379;51.506;11.876;2022-11-27T14:17:26;7.00;;;5.30;;
14584;SDS011;7379;51.506;11.876;2022-11-27T14:20:02;7.67;;;5.60;;
14584;SDS011;7379;51.506;11.876;2022-11-27T14:22:33;10.77;;;5.93;;
14584;SDS011;7379;51.506;11.876;2022-11-27T14:25:11;8.37;;;5.70;;
14584;SDS011;7379;51.506;11.876;2022-11-27T14:27:45;7.93;;;5.47;;
14584;SDS011;7379;51.506;11.876;2022-11-27T14:30:20;8.30;;;5.77;;
14584;SDS011;7379;51.506;11.876;2022-11-27T14:36:17;6.20;;;5.43;;
14584;SDS011;7379;51.506;11.876;2022-11-27T14:38:48;6.67;;;5.50;;
14584;SDS011;7379;51.506;11.876;2022-11-27T14:41:16;8.73;;;6.37;;
14584;SDS011;7379;51.506;11.876;2022-11-27T14:43:45;9.37;;;6.50;;
14584;SDS011;7379;51.506;11.876;2022-11-27T14:46:13;8.47;;;6.57;;
14584;SDS011;7379;51.506;11.876;2022-11-27T14:48:43;9.30;;;6.80;;
14584;SDS011;7379;51.506;11.876;2022-11-27T14:51:13;7.00;;;6.03;;
14584;SDS011;7379;51.506;11.876;2022-11-27T14:53:43;8.80;;;6.40;;
14584;SDS011;7379;51.506;11.876;2022-11-27T14:56:11;7.57;;;6.60;;
14584;SDS011;7379;51.506;11.876;2022-11-27T14:58:39;9.43;;;6.83;;
14584;SDS011;7379;51.506;11.876;2022-11-27T15:01:18;10.03;;;6.53;;
14584;SDS011;7379;51.506;11.876;2022-11-27T15:03:53;8.57;;;6.57;;
14584;SDS011;7379;51.506;11.876;2022-11-27T15:06:21;10.60;;;7.37;;
14584;SDS011;7379;51.506;11.876;2022-11-27T15:08:49;10.60;;;7.17;;